FBMN

Maun Airport

Maun, Botswana
METAR FBMN 210400Z 12007KT 9999 FEW035CB 22/10 Q1013
Observed Flight Rules
Jan-21 @ 04:00 UTC (36 minutes ago) Visual Flight Rules
Wind Visibility Clouds
120° at 7 knots 10,000+ meters
  • Few at 3,500' AGL
Temperatures Readings
Current 22°C / 72°F
Dewpoint 10°C / 50°F
Humidity 47%
Altimeter 29.91" Hg
Pressure 1013 hPa
Elevation 900
METAR FBMN 210400Z 12007KT 9999 FEW035CB 22/10 Q1013
Observed Flight Rules
Jan-21 @ 04:00 UTC
(36 minutes ago)
VFR
Wind Visibility
120° at 7 knots 10,000+ meters
Clouds
  • Few at 3,500' AGL
Temperature Dewpoint
22°C / 72°F 10°C / 50°F
Humidity Altimeter Pressure
47% 29.91" Hg 1013 hPa